sensor_id;sensor_type;location;lat;lon;timestamp;P1;durP1;ratioP1;P2;durP2;ratioP2
32200;SDS011;18701;45.588;5.288;2023-02-15T00:00:53;27.20;;;14.73;;
32200;SDS011;18701;45.588;5.288;2023-02-15T00:03:21;27.02;;;15.82;;
32200;SDS011;18701;45.588;5.288;2023-02-15T00:05:47;26.35;;;15.57;;
32200;SDS011;18701;45.588;5.288;2023-02-15T00:08:13;29.52;;;15.68;;
32200;SDS011;18701;45.588;5.288;2023-02-15T00:10:38;28.10;;;15.95;;
32200;SDS011;18701;45.588;5.288;2023-02-15T00:13:04;25.17;;;15.50;;
32200;SDS011;18701;45.588;5.288;2023-02-15T00:15:29;27.35;;;15.57;;
32200;SDS011;18701;45.588;5.288;2023-02-15T00:17:58;27.90;;;16.33;;
32200;SDS011;18701;45.588;5.288;2023-02-15T00:20:24;32.75;;;17.17;;
32200;SDS011;18701;45.588;5.288;2023-02-15T00:22:49;30.52;;;16.30;;
32200;SDS011;18701;45.588;5.288;2023-02-15T00:25:15;28.23;;;16.60;;
32200;SDS011;18701;45.588;5.288;2023-02-15T00:27:40;30.15;;;15.25;;
32200;SDS011;18701;45.588;5.288;2023-02-15T00:30:06;28.20;;;16.35;;
32200;SDS011;18701;45.588;5.288;2023-02-15T00:32:32;25.02;;;15.25;;
32200;SDS011;18701;45.588;5.288;2023-02-15T00:34:58;30.10;;;15.73;;
32200;SDS011;18701;45.588;5.288;2023-02-15T00:37:24;27.58;;;16.33;;
32200;SDS011;18701;45.588;5.288;2023-02-15T00:39:49;27.65;;;15.43;;
32200;SDS011;18701;45.588;5.288;2023-02-15T00:42:15;27.92;;;15.52;;
32200;SDS011;18701;45.588;5.288;2023-02-15T00:44:40;29.30;;;15.30;;
32200;SDS011;18701;45.588;5.288;2023-02-15T00:47:06;25.40;;;15.13;;
32200;SDS011;18701;45.588;5.288;2023-02-15T00:49:31;25.10;;;15.35;;
32200;SDS011;18701;45.588;5.288;2023-02-15T00:51:57;29.50;;;15.07;;
32200;SDS011;18701;45.588;5.288;2023-02-15T00:54:23;27.45;;;16.33;;
32200;SDS011;18701;45.588;5.288;2023-02-15T00:56:48;25.70;;;14.48;;
32200;SDS011;18701;45.588;5.288;2023-02-15T00:59:14;30.08;;;15.73;;
32200;SDS011;18701;45.588;5.288;2023-02-15T01:01:39;24.15;;;14.90;;
32200;SDS011;18701;45.588;5.288;2023-02-15T01:04:05;32.35;;;15.40;;
32200;SDS011;18701;45.588;5.288;2023-02-15T01:06:31;29.73;;;15.77;;
32200;SDS011;18701;45.588;5.288;2023-02-15T01:08:56;27.23;;;15.82;;
32200;SDS011;18701;45.588;5.288;2023-02-15T01:11:22;26.65;;;14.90;;
32200;SDS011;18701;45.588;5.288;2023-02-15T01:13:49;25.83;;;15.57;;
32200;SDS011;18701;45.588;5.288;2023-02-15T01:16:19;29.25;;;16.35;;
32200;SDS011;18701;45.588;5.288;2023-02-15T01:18:45;26.90;;;15.45;;
32200;SDS011;18701;45.588;5.288;2023-02-15T01:21:14;25.85;;;14.73;;
32200;SDS011;18701;45.588;5.288;2023-02-15T01:23:41;28.35;;;16.45;;
32200;SDS011;18701;45.588;5.288;2023-02-15T01:26:07;25.60;;;15.07;;
32200;SDS011;18701;45.588;5.288;2023-02-15T01:28:34;30.80;;;15.68;;
32200;SDS011;18701;45.588;5.288;2023-02-15T01:31:04;30.52;;;16.05;;
32200;SDS011;18701;45.588;5.288;2023-02-15T01:33:34;26.77;;;15.32;;
32200;SDS011;18701;45.588;5.288;2023-02-15T01:36:01;25.38;;;15.70;;
32200;SDS011;18701;45.588;5.288;2023-02-15T01:38:27;23.23;;;14.55;;
32200;SDS011;18701;45.588;5.288;2023-02-15T01:40:53;33.63;;;15.77;;
32200;SDS011;18701;45.588;5.288;2023-02-15T01:43:43;27.08;;;14.52;;
32200;SDS011;18701;45.588;5.288;2023-02-15T01:46:14;27.35;;;15.82;;
32200;SDS011;18701;45.588;5.288;2023-02-15T01:48:50;30.15;;;16.02;;
32200;SDS011;18701;45.588;5.288;2023-02-15T01:51:23;30.42;;;15.02;;
32200;SDS011;18701;45.588;5.288;2023-02-15T01:54:02;28.40;;;14.20;;
32200;SDS011;18701;45.588;5.288;2023-02-15T01:56:35;24.15;;;14.48;;
32200;SDS011;18701;45.588;5.288;2023-02-15T01:59:03;27.42;;;15.25;;
32200;SDS011;18701;45.588;5.288;2023-02-15T02:01:33;26.65;;;14.70;;
32200;SDS011;18701;45.588;5.288;2023-02-15T02:04:02;25.63;;;14.77;;
32200;SDS011;18701;45.588;5.288;2023-02-15T02:06:29;28.92;;;14.93;;
32200;SDS011;18701;45.588;5.288;2023-02-15T02:08:57;27.40;;;14.95;;
32200;SDS011;18701;45.588;5.288;2023-02-15T02:11:23;28.45;;;16.58;;
32200;SDS011;18701;45.588;5.288;2023-02-15T02:13:49;30.75;;;15.57;;
32200;SDS011;18701;45.588;5.288;2023-02-15T02:24:54;27.98;;;14.68;;
32200;SDS011;18701;45.588;5.288;2023-02-15T02:44:54;33.20;;;16.85;;
32200;SDS011;18701;45.588;5.288;2023-02-15T02:47:29;29.05;;;16.90;;
32200;SDS011;18701;45.588;5.288;2023-02-15T02:50:09;28.45;;;16.27;;
32200;SDS011;18701;45.588;5.288;2023-02-15T02:52:44;30.00;;;16.20;;
32200;SDS011;18701;45.588;5.288;2023-02-15T02:55:16;26.75;;;15.85;;
32200;SDS011;18701;45.588;5.288;2023-02-15T03:00:36;28.55;;;16.38;;
32200;SDS011;18701;45.588;5.288;2023-02-15T03:03:09;29.00;;;16.35;;
32200;SDS011;18701;45.588;5.288;2023-02-15T03:05:41;31.35;;;16.17;;
32200;SDS011;18701;45.588;5.288;2023-02-15T03:08:10;31.23;;;16.60;;
32200;SDS011;18701;45.588;5.288;2023-02-15T03:10:46;25.65;;;16.38;;
32200;SDS011;18701;45.588;5.288;2023-02-15T03:13:14;28.58;;;16.55;;
32200;SDS011;18701;45.588;5.288;2023-02-15T03:15:40;28.90;;;17.40;;
32200;SDS011;18701;45.588;5.288;2023-02-15T03:18:26;35.60;;;16.38;;
32200;SDS011;18701;45.588;5.288;2023-02-15T03:20:56;27.77;;;16.77;;
32200;SDS011;18701;45.588;5.288;2023-02-15T03:23:26;30.90;;;18.27;;
32200;SDS011;18701;45.588;5.288;2023-02-15T03:25:57;30.17;;;17.08;;
32200;SDS011;18701;45.588;5.288;2023-02-15T03:28:27;27.88;;;16.85;;
32200;SDS011;18701;45.588;5.288;2023-02-15T03:30:58;31.05;;;16.23;;
32200;SDS011;18701;45.588;5.288;2023-02-15T03:33:27;32.58;;;16.92;;
32200;SDS011;18701;45.588;5.288;2023-02-15T03:35:56;36.90;;;18.48;;
32200;SDS011;18701;45.588;5.288;2023-02-15T03:38:29;33.60;;;17.50;;
32200;SDS011;18701;45.588;5.288;2023-02-15T03:41:07;30.75;;;16.65;;
32200;SDS011;18701;45.588;5.288;2023-02-15T03:43:54;33.45;;;17.85;;
32200;SDS011;18701;45.588;5.288;2023-02-15T03:46:35;29.15;;;16.40;;
32200;SDS011;18701;45.588;5.288;2023-02-15T03:52:19;34.80;;;17.80;;
32200;SDS011;18701;45.588;5.288;2023-02-15T03:54:46;30.13;;;17.02;;
32200;SDS011;18701;45.588;5.288;2023-02-15T03:57:22;30.88;;;18.30;;
32200;SDS011;18701;45.588;5.288;2023-02-15T04:00:14;30.52;;;16.70;;
32200;SDS011;18701;45.588;5.288;2023-02-15T04:05:34;31.52;;;17.98;;
32200;SDS011;18701;45.588;5.288;2023-02-15T04:08:00;30.98;;;18.70;;
32200;SDS011;18701;45.588;5.288;2023-02-15T04:10:26;36.58;;;19.90;;
32200;SDS011;18701;45.588;5.288;2023-02-15T04:13:10;34.30;;;20.42;;
32200;SDS011;18701;45.588;5.288;2023-02-15T04:15:36;33.83;;;19.58;;
32200;SDS011;18701;45.588;5.288;2023-02-15T04:18:20;31.52;;;18.17;;
32200;SDS011;18701;45.588;5.288;2023-02-15T04:20:46;35.10;;;18.80;;
32200;SDS011;18701;45.588;5.288;2023-02-15T04:23:30;33.03;;;19.65;;
32200;SDS011;18701;45.588;5.288;2023-02-15T04:26:15;34.53;;;20.27;;
32200;SDS011;18701;45.588;5.288;2023-02-15T04:28:40;33.63;;;19.33;;
32200;SDS011;18701;45.588;5.288;2023-02-15T04:31:06;36.33;;;20.23;;
32200;SDS011;18701;45.588;5.288;2023-02-15T04:33:32;31.30;;;19.50;;
32200;SDS011;18701;45.588;5.288;2023-02-15T04:35:58;32.42;;;18.92;;
32200;SDS011;18701;45.588;5.288;2023-02-15T04:38:23;35.33;;;20.50;;
32200;SDS011;18701;45.588;5.288;2023-02-15T04:40:50;34.65;;;18.80;;
32200;SDS011;18701;45.588;5.288;2023-02-15T04:43:17;30.10;;;18.75;;
32200;SDS011;18701;45.588;5.288;2023-02-15T04:45:47;33.05;;;19.25;;
32200;SDS011;18701;45.588;5.288;2023-02-15T04:48:16;33.30;;;17.90;;
32200;SDS011;18701;45.588;5.288;2023-02-15T04:50:42;34.58;;;18.67;;
32200;SDS011;18701;45.588;5.288;2023-02-15T04:53:09;32.72;;;18.10;;
32200;SDS011;18701;45.588;5.288;2023-02-15T04:55:35;31.25;;;18.55;;
32200;SDS011;18701;45.588;5.288;2023-02-15T04:58:00;30.42;;;18.08;;
32200;SDS011;18701;45.588;5.288;2023-02-15T05:00:26;32.90;;;18.95;;
32200;SDS011;18701;45.588;5.288;2023-02-15T05:02:52;31.70;;;18.80;;
32200;SDS011;18701;45.588;5.288;2023-02-15T05:05:18;33.15;;;18.60;;
32200;SDS011;18701;45.588;5.288;2023-02-15T05:07:43;32.80;;;18.38;;
32200;SDS011;18701;45.588;5.288;2023-02-15T05:10:09;35.75;;;18.90;;
32200;SDS011;18701;45.588;5.288;2023-02-15T05:12:35;32.08;;;18.50;;
32200;SDS011;18701;45.588;5.288;2023-02-15T05:15:01;34.20;;;19.45;;
32200;SDS011;18701;45.588;5.288;2023-02-15T05:17:26;36.80;;;18.98;;
32200;SDS011;18701;45.588;5.288;2023-02-15T05:19:52;33.25;;;19.23;;
32200;SDS011;18701;45.588;5.288;2023-02-15T05:22:17;34.47;;;19.40;;
32200;SDS011;18701;45.588;5.288;2023-02-15T05:24:43;31.15;;;18.90;;
32200;SDS011;18701;45.588;5.288;2023-02-15T05:27:27;39.92;;;20.38;;
32200;SDS011;18701;45.588;5.288;2023-02-15T05:30:11;30.02;;;18.65;;
32200;SDS011;18701;45.588;5.288;2023-02-15T05:32:38;32.53;;;20.52;;
32200;SDS011;18701;45.588;5.288;2023-02-15T05:35:05;33.65;;;19.42;;
32200;SDS011;18701;45.588;5.288;2023-02-15T05:37:31;34.78;;;20.20;;
32200;SDS011;18701;45.588;5.288;2023-02-15T05:39:57;34.33;;;20.15;;
32200;SDS011;18701;45.588;5.288;2023-02-15T05:42:22;32.90;;;19.77;;
32200;SDS011;18701;45.588;5.288;2023-02-15T05:44:49;38.17;;;20.42;;
32200;SDS011;18701;45.588;5.288;2023-02-15T05:47:15;32.60;;;20.00;;
32200;SDS011;18701;45.588;5.288;2023-02-15T05:49:40;38.10;;;20.65;;
32200;SDS011;18701;45.588;5.288;2023-02-15T05:52:06;33.67;;;18.67;;
32200;SDS011;18701;45.588;5.288;2023-02-15T05:54:32;34.03;;;20.20;;
32200;SDS011;18701;45.588;5.288;2023-02-15T05:56:57;32.75;;;20.15;;
32200;SDS011;18701;45.588;5.288;2023-02-15T05:59:23;34.58;;;20.27;;
32200;SDS011;18701;45.588;5.288;2023-02-15T06:01:49;37.83;;;21.10;;
32200;SDS011;18701;45.588;5.288;2023-02-15T06:04:14;34.70;;;20.83;;
32200;SDS011;18701;45.588;5.288;2023-02-15T06:06:40;43.63;;;22.35;;
32200;SDS011;18701;45.588;5.288;2023-02-15T06:09:05;40.03;;;22.80;;
32200;SDS011;18701;45.588;5.288;2023-02-15T06:11:31;42.42;;;22.70;;
32200;SDS011;18701;45.588;5.288;2023-02-15T06:13:57;41.20;;;23.38;;
32200;SDS011;18701;45.588;5.288;2023-02-15T06:16:22;39.97;;;21.25;;
32200;SDS011;18701;45.588;5.288;2023-02-15T06:18:48;38.00;;;20.55;;
32200;SDS011;18701;45.588;5.288;2023-02-15T06:21:14;38.15;;;21.30;;
32200;SDS011;18701;45.588;5.288;2023-02-15T06:23:39;40.42;;;21.33;;
32200;SDS011;18701;45.588;5.288;2023-02-15T06:26:05;38.25;;;21.63;;
32200;SDS011;18701;45.588;5.288;2023-02-15T06:28:31;36.42;;;22.73;;
32200;SDS011;18701;45.588;5.288;2023-02-15T06:30:56;40.90;;;23.38;;
32200;SDS011;18701;45.588;5.288;2023-02-15T06:33:22;37.55;;;21.88;;
32200;SDS011;18701;45.588;5.288;2023-02-15T06:35:48;40.08;;;22.13;;
32200;SDS011;18701;45.588;5.288;2023-02-15T06:38:13;40.50;;;21.88;;
32200;SDS011;18701;45.588;5.288;2023-02-15T06:40:39;39.40;;;21.25;;
32200;SDS011;18701;45.588;5.288;2023-02-15T06:43:05;39.00;;;21.35;;
32200;SDS011;18701;45.588;5.288;2023-02-15T06:45:30;37.58;;;21.15;;
32200;SDS011;18701;45.588;5.288;2023-02-15T06:47:56;46.15;;;22.23;;
32200;SDS011;18701;45.588;5.288;2023-02-15T06:50:21;39.85;;;21.42;;
32200;SDS011;18701;45.588;5.288;2023-02-15T06:52:47;37.83;;;22.00;;
32200;SDS011;18701;45.588;5.288;2023-02-15T06:55:13;45.88;;;21.67;;
32200;SDS011;18701;45.588;5.288;2023-02-15T06:57:38;39.10;;;21.75;;
32200;SDS011;18701;45.588;5.288;2023-02-15T07:00:04;45.17;;;21.75;;
32200;SDS011;18701;45.588;5.288;2023-02-15T07:02:31;34.90;;;20.60;;
32200;SDS011;18701;45.588;5.288;2023-02-15T07:04:58;40.47;;;22.20;;
32200;SDS011;18701;45.588;5.288;2023-02-15T07:07:23;38.50;;;21.25;;
32200;SDS011;18701;45.588;5.288;2023-02-15T07:09:49;42.85;;;22.02;;
32200;SDS011;18701;45.588;5.288;2023-02-15T07:12:14;39.58;;;21.02;;
32200;SDS011;18701;45.588;5.288;2023-02-15T07:14:59;48.15;;;22.63;;
32200;SDS011;18701;45.588;5.288;2023-02-15T07:17:24;46.25;;;22.73;;
32200;SDS011;18701;45.588;5.288;2023-02-15T07:19:53;44.78;;;22.15;;
32200;SDS011;18701;45.588;5.288;2023-02-15T07:22:19;43.97;;;20.95;;
32200;SDS011;18701;45.588;5.288;2023-02-15T07:24:45;43.50;;;22.83;;
32200;SDS011;18701;45.588;5.288;2023-02-15T07:27:10;44.10;;;22.27;;
32200;SDS011;18701;45.588;5.288;2023-02-15T07:29:36;36.63;;;22.05;;
32200;SDS011;18701;45.588;5.288;2023-02-15T07:32:01;40.35;;;22.08;;
32200;SDS011;18701;45.588;5.288;2023-02-15T07:34:27;40.70;;;21.75;;
32200;SDS011;18701;45.588;5.288;2023-02-15T07:36:53;37.42;;;21.85;;
32200;SDS011;18701;45.588;5.288;2023-02-15T07:39:19;37.58;;;22.27;;
32200;SDS011;18701;45.588;5.288;2023-02-15T07:41:44;38.30;;;21.60;;
32200;SDS011;18701;45.588;5.288;2023-02-15T07:44:13;38.67;;;21.80;;
32200;SDS011;18701;45.588;5.288;2023-02-15T07:46:39;37.40;;;21.38;;
32200;SDS011;18701;45.588;5.288;2023-02-15T07:49:05;43.75;;;21.17;;
32200;SDS011;18701;45.588;5.288;2023-02-15T07:51:31;39.58;;;21.55;;
32200;SDS011;18701;45.588;5.288;2023-02-15T07:53:56;43.35;;;21.90;;
32200;SDS011;18701;45.588;5.288;2023-02-15T07:56:22;49.63;;;23.30;;
32200;SDS011;18701;45.588;5.288;2023-02-15T07:58:48;39.70;;;21.25;;
32200;SDS011;18701;45.588;5.288;2023-02-15T08:01:23;40.03;;;21.10;;
32200;SDS011;18701;45.588;5.288;2023-02-15T08:03:52;42.85;;;22.35;;
32200;SDS011;18701;45.588;5.288;2023-02-15T08:06:22;39.92;;;21.85;;
32200;SDS011;18701;45.588;5.288;2023-02-15T08:08:49;41.38;;;19.98;;
32200;SDS011;18701;45.588;5.288;2023-02-15T08:11:18;38.17;;;21.48;;
32200;SDS011;18701;45.588;5.288;2023-02-15T08:13:58;37.70;;;21.55;;
32200;SDS011;18701;45.588;5.288;2023-02-15T08:19:10;41.83;;;22.00;;
32200;SDS011;18701;45.588;5.288;2023-02-15T08:21:40;41.78;;;22.98;;
32200;SDS011;18701;45.588;5.288;2023-02-15T08:24:08;39.92;;;22.27;;
32200;SDS011;18701;45.588;5.288;2023-02-15T08:26:35;41.67;;;22.20;;
32200;SDS011;18701;45.588;5.288;2023-02-15T08:29:01;41.08;;;22.55;;
32200;SDS011;18701;45.588;5.288;2023-02-15T08:31:28;37.15;;;22.50;;
32200;SDS011;18701;45.588;5.288;2023-02-15T08:33:54;48.60;;;23.85;;
32200;SDS011;18701;45.588;5.288;2023-02-15T08:36:22;45.97;;;24.13;;
32200;SDS011;18701;45.588;5.288;2023-02-15T08:38:49;46.00;;;22.40;;
32200;SDS011;18701;45.588;5.288;2023-02-15T08:41:19;36.22;;;22.45;;
32200;SDS011;18701;45.588;5.288;2023-02-15T08:43:47;41.67;;;22.05;;
32200;SDS011;18701;45.588;5.288;2023-02-15T08:46:16;38.83;;;21.85;;
32200;SDS011;18701;45.588;5.288;2023-02-15T08:48:43;42.20;;;23.30;;
32200;SDS011;18701;45.588;5.288;2023-02-15T08:51:10;38.35;;;22.08;;
32200;SDS011;18701;45.588;5.288;2023-02-15T08:53:39;37.45;;;22.05;;
32200;SDS011;18701;45.588;5.288;2023-02-15T08:56:05;43.03;;;20.80;;
32200;SDS011;18701;45.588;5.288;2023-02-15T08:58:31;37.97;;;20.95;;
32200;SDS011;18701;45.588;5.288;2023-02-15T09:00:57;32.53;;;20.10;;
32200;SDS011;18701;45.588;5.288;2023-02-15T09:03:23;36.20;;;19.80;;
32200;SDS011;18701;45.588;5.288;2023-02-15T09:05:49;39.65;;;20.40;;
32200;SDS011;18701;45.588;5.288;2023-02-15T09:08:15;37.03;;;20.70;;
32200;SDS011;18701;45.588;5.288;2023-02-15T09:10:41;33.22;;;19.08;;
32200;SDS011;18701;45.588;5.288;2023-02-15T09:13:07;34.45;;;19.42;;
32200;SDS011;18701;45.588;5.288;2023-02-15T09:15:32;33.35;;;20.05;;
32200;SDS011;18701;45.588;5.288;2023-02-15T09:17:58;35.97;;;19.30;;
32200;SDS011;18701;45.588;5.288;2023-02-15T09:20:26;37.53;;;18.67;;
32200;SDS011;18701;45.588;5.288;2023-02-15T09:22:53;45.30;;;19.10;;
32200;SDS011;18701;45.588;5.288;2023-02-15T09:25:19;30.25;;;18.40;;
32200;SDS011;18701;45.588;5.288;2023-02-15T09:27:45;37.83;;;19.63;;
32200;SDS011;18701;45.588;5.288;2023-02-15T09:30:10;28.85;;;18.00;;
32200;SDS011;18701;45.588;5.288;2023-02-15T09:32:37;30.10;;;17.58;;
32200;SDS011;18701;45.588;5.288;2023-02-15T09:35:02;39.08;;;17.67;;
32200;SDS011;18701;45.588;5.288;2023-02-15T09:37:29;28.55;;;16.30;;
32200;SDS011;18701;45.588;5.288;2023-02-15T09:39:56;33.80;;;18.73;;
32200;SDS011;18701;45.588;5.288;2023-02-15T09:48:40;27.55;;;14.20;;
32200;SDS011;18701;45.588;5.288;2023-02-15T09:51:13;27.42;;;14.82;;
32200;SDS011;18701;45.588;5.288;2023-02-15T09:58:54;23.20;;;11.98;;
32200;SDS011;18701;45.588;5.288;2023-02-15T10:01:32;25.15;;;12.27;;
32200;SDS011;18701;45.588;5.288;2023-02-15T10:04:28;20.92;;;12.43;;
32200;SDS011;18701;45.588;5.288;2023-02-15T10:07:01;24.67;;;13.00;;
32200;SDS011;18701;45.588;5.288;2023-02-15T10:09:48;35.63;;;13.18;;
32200;SDS011;18701;45.588;5.288;2023-02-15T10:26:35;24.08;;;11.10;;
32200;SDS011;18701;45.588;5.288;2023-02-15T10:29:09;24.52;;;12.27;;
32200;SDS011;18701;45.588;5.288;2023-02-15T10:31:50;25.58;;;12.00;;
32200;SDS011;18701;45.588;5.288;2023-02-15T10:47:46;18.92;;;10.55;;
32200;SDS011;18701;45.588;5.288;2023-02-15T10:53:13;20.30;;;10.80;;
32200;SDS011;18701;45.588;5.288;2023-02-15T11:04:16;16.08;;;8.85;;
32200;SDS011;18701;45.588;5.288;2023-02-15T11:07:08;11.05;;;6.10;;
32200;SDS011;18701;45.588;5.288;2023-02-15T11:09:49;11.93;;;6.85;;
32200;SDS011;18701;45.588;5.288;2023-02-15T11:12:47;9.68;;;6.28;;
32200;SDS011;18701;45.588;5.288;2023-02-15T11:15:20;9.18;;;5.55;;
32200;SDS011;18701;45.588;5.288;2023-02-15T11:18:11;11.00;;;5.80;;
32200;SDS011;18701;45.588;5.288;2023-02-15T11:20:45;15.93;;;6.15;;
32200;SDS011;18701;45.588;5.288;2023-02-15T11:23:18;12.00;;;5.43;;
32200;SDS011;18701;45.588;5.288;2023-02-15T11:25:45;12.77;;;5.93;;
32200;SDS011;18701;45.588;5.288;2023-02-15T11:28:39;14.20;;;8.40;;
32200;SDS011;18701;45.588;5.288;2023-02-15T11:31:17;12.77;;;10.25;;
32200;SDS011;18701;45.588;5.288;2023-02-15T11:33:46;27.83;;;24.80;;
32200;SDS011;18701;45.588;5.288;2023-02-15T11:36:20;18.70;;;11.68;;
32200;SDS011;18701;45.588;5.288;2023-02-15T11:38:50;9.77;;;7.05;;
32200;SDS011;18701;45.588;5.288;2023-02-15T11:41:24;7.35;;;5.18;;
32200;SDS011;18701;45.588;5.288;2023-02-15T11:43:56;9.70;;;7.32;;
32200;SDS011;18701;45.588;5.288;2023-02-15T11:48:53;8.02;;;5.28;;
32200;SDS011;18701;45.588;5.288;2023-02-15T11:51:20;10.25;;;5.60;;
32200;SDS011;18701;45.588;5.288;2023-02-15T11:53:47;11.20;;;5.63;;
32200;SDS011;18701;45.588;5.288;2023-02-15T11:56:18;8.82;;;5.43;;
32200;SDS011;18701;45.588;5.288;2023-02-15T11:58:51;13.80;;;5.22;;
32200;SDS011;18701;45.588;5.288;2023-02-15T12:01:33;7.60;;;4.70;;
32200;SDS011;18701;45.588;5.288;2023-02-15T12:04:15;6.95;;;5.72;;
32200;SDS011;18701;45.588;5.288;2023-02-15T12:09:40;7.40;;;5.35;;
32200;SDS011;18701;45.588;5.288;2023-02-15T12:14:49;6.13;;;5.53;;
32200;SDS011;18701;45.588;5.288;2023-02-15T12:17:39;5.65;;;4.60;;
32200;SDS011;18701;45.588;5.288;2023-02-15T12:22:48;10.32;;;6.60;;
32200;SDS011;18701;45.588;5.288;2023-02-15T12:25:23;7.07;;;5.55;;
32200;SDS011;18701;45.588;5.288;2023-02-15T12:27:54;7.72;;;5.57;;
32200;SDS011;18701;45.588;5.288;2023-02-15T12:30:54;6.47;;;5.00;;
32200;SDS011;18701;45.588;5.288;2023-02-15T12:33:16;9.88;;;6.53;;
32200;SDS011;18701;45.588;5.288;2023-02-15T12:36:01;7.63;;;5.20;;
32200;SDS011;18701;45.588;5.288;2023-02-15T12:38:36;7.07;;;5.00;;
32200;SDS011;18701;45.588;5.288;2023-02-15T12:41:03;9.38;;;4.65;;
32200;SDS011;18701;45.588;5.288;2023-02-15T12:43:34;5.72;;;4.35;;
32200;SDS011;18701;45.588;5.288;2023-02-15T12:46:12;4.45;;;3.88;;
32200;SDS011;18701;45.588;5.288;2023-02-15T12:49:04;7.35;;;4.55;;
32200;SDS011;18701;45.588;5.288;2023-02-15T12:51:42;4.10;;;3.67;;
32200;SDS011;18701;45.588;5.288;2023-02-15T12:54:56;5.20;;;3.60;;
32200;SDS011;18701;45.588;5.288;2023-02-15T12:59:55;4.82;;;3.42;;
32200;SDS011;18701;45.588;5.288;2023-02-15T13:02:29;5.88;;;3.42;;
32200;SDS011;18701;45.588;5.288;2023-02-15T13:05:50;5.80;;;3.53;;
32200;SDS011;18701;45.588;5.288;2023-02-15T13:08:10;6.43;;;2.90;;
32200;SDS011;18701;45.588;5.288;2023-02-15T13:10:54;2.97;;;2.70;;
32200;SDS011;18701;45.588;5.288;2023-02-15T13:13:31;4.47;;;2.80;;
32200;SDS011;18701;45.588;5.288;2023-02-15T13:16:11;4.57;;;2.60;;
32200;SDS011;18701;45.588;5.288;2023-02-15T13:18:42;3.28;;;2.47;;
32200;SDS011;18701;45.588;5.288;2023-02-15T13:21:12;3.90;;;2.47;;
32200;SDS011;18701;45.588;5.288;2023-02-15T13:23:39;4.72;;;2.92;;
32200;SDS011;18701;45.588;5.288;2023-02-15T13:26:11;5.30;;;3.10;;
32200;SDS011;18701;45.588;5.288;2023-02-15T13:28:44;3.30;;;2.47;;
32200;SDS011;18701;45.588;5.288;2023-02-15T13:31:20;3.10;;;2.35;;
32200;SDS011;18701;45.588;5.288;2023-02-15T13:33:56;3.00;;;2.42;;
32200;SDS011;18701;45.588;5.288;2023-02-15T13:41:50;4.25;;;1.90;;
32200;SDS011;18701;45.588;5.288;2023-02-15T13:49:56;1.83;;;1.60;;
32200;SDS011;18701;45.588;5.288;2023-02-15T13:56:02;3.72;;;1.50;;
32200;SDS011;18701;45.588;5.288;2023-02-15T14:01:09;2.33;;;1.60;;
32200;SDS011;18701;45.588;5.288;2023-02-15T14:03:50;4.45;;;1.15;;
32200;SDS011;18701;45.588;5.288;2023-02-15T14:09:24;5.03;;;1.40;;
32200;SDS011;18701;45.588;5.288;2023-02-15T14:15:13;4.22;;;1.50;;
32200;SDS011;18701;45.588;5.288;2023-02-15T14:20:51;2.38;;;1.70;;
32200;SDS011;18701;45.588;5.288;2023-02-15T14:23:31;2.40;;;1.42;;
32200;SDS011;18701;45.588;5.288;2023-02-15T14:31:56;2.05;;;0.98;;
32200;SDS011;18701;45.588;5.288;2023-02-15T14:34:30;2.25;;;1.40;;
32200;SDS011;18701;45.588;5.288;2023-02-15T14:37:19;2.35;;;1.30;;
32200;SDS011;18701;45.588;5.288;2023-02-15T14:40:27;2.13;;;1.45;;
32200;SDS011;18701;45.588;5.288;2023-02-15T14:43:21;2.95;;;1.63;;
32200;SDS011;18701;45.588;5.288;2023-02-15T14:46:06;4.10;;;1.30;;
32200;SDS011;18701;45.588;5.288;2023-02-15T14:49:04;3.22;;;1.85;;
32200;SDS011;18701;45.588;5.288;2023-02-15T14:57:26;2.28;;;1.50;;
32200;SDS011;18701;45.588;5.288;2023-02-15T14:59:37;2.28;;;1.35;;
32200;SDS011;18701;45.588;5.288;2023-02-15T15:04:37;6.20;;;1.83;;
32200;SDS011;18701;45.588;5.288;2023-02-15T15:09:59;2.80;;;1.77;;
32200;SDS011;18701;45.588;5.288;2023-02-15T15:14:57;3.35;;;2.30;;
32200;SDS011;18701;45.588;5.288;2023-02-15T15:21:03;6.18;;;1.95;;
32200;SDS011;18701;45.588;5.288;2023-02-15T15:33:51;4.30;;;1.70;;
32200;SDS011;18701;45.588;5.288;2023-02-15T15:39:34;3.65;;;1.85;;
32200;SDS011;18701;45.588;5.288;2023-02-15T15:42:12;1.90;;;1.40;;
32200;SDS011;18701;45.588;5.288;2023-02-15T15:45:02;3.67;;;1.95;;
32200;SDS011;18701;45.588;5.288;2023-02-15T15:47:54;8.68;;;2.05;;
32200;SDS011;18701;45.588;5.288;2023-02-15T15:50:31;2.22;;;1.20;;
32200;SDS011;18701;45.588;5.288;2023-02-15T15:52:58;2.30;;;1.10;;
32200;SDS011;18701;45.588;5.288;2023-02-15T15:55:27;1.75;;;1.30;;
32200;SDS011;18701;45.588;5.288;2023-02-15T15:58:05;8.85;;;1.60;;
32200;SDS011;18701;45.588;5.288;2023-02-15T16:00:40;6.45;;;1.65;;
32200;SDS011;18701;45.588;5.288;2023-02-15T16:03:22;5.13;;;1.27;;
32200;SDS011;18701;45.588;5.288;2023-02-15T16:05:52;3.67;;;1.30;;
32200;SDS011;18701;45.588;5.288;2023-02-15T16:08:26;4.65;;;1.25;;
32200;SDS011;18701;45.588;5.288;2023-02-15T16:10:53;1.50;;;0.98;;
32200;SDS011;18701;45.588;5.288;2023-02-15T16:13:18;3.22;;;1.60;;
32200;SDS011;18701;45.588;5.288;2023-02-15T16:15:49;4.43;;;1.27;;
32200;SDS011;18701;45.588;5.288;2023-02-15T16:18:18;2.85;;;1.30;;
32200;SDS011;18701;45.588;5.288;2023-02-15T16:28:50;2.38;;;1.27;;
32200;SDS011;18701;45.588;5.288;2023-02-15T16:31:19;2.65;;;1.40;;
32200;SDS011;18701;45.588;5.288;2023-02-15T16:33:52;5.10;;;1.95;;
32200;SDS011;18701;45.588;5.288;2023-02-15T16:36:23;2.85;;;1.90;;
32200;SDS011;18701;45.588;5.288;2023-02-15T16:41:27;3.60;;;1.90;;
32200;SDS011;18701;45.588;5.288;2023-02-15T16:43:55;2.88;;;1.55;;
32200;SDS011;18701;45.588;5.288;2023-02-15T16:48:49;3.78;;;1.80;;
32200;SDS011;18701;45.588;5.288;2023-02-15T16:51:20;9.82;;;2.20;;
32200;SDS011;18701;45.588;5.288;2023-02-15T16:53:48;3.83;;;1.40;;
32200;SDS011;18701;45.588;5.288;2023-02-15T16:56:14;3.50;;;1.95;;
32200;SDS011;18701;45.588;5.288;2023-02-15T16:58:48;7.35;;;1.88;;
32200;SDS011;18701;45.588;5.288;2023-02-15T17:01:15;16.92;;;2.28;;
32200;SDS011;18701;45.588;5.288;2023-02-15T17:03:47;5.82;;;2.05;;
32200;SDS011;18701;45.588;5.288;2023-02-15T17:06:32;6.18;;;1.98;;
32200;SDS011;18701;45.588;5.288;2023-02-15T17:09:04;8.30;;;2.45;;
32200;SDS011;18701;45.588;5.288;2023-02-15T17:11:37;6.30;;;2.40;;
32200;SDS011;18701;45.588;5.288;2023-02-15T17:16:36;6.68;;;2.15;;
32200;SDS011;18701;45.588;5.288;2023-02-15T17:19:08;7.00;;;2.20;;
32200;SDS011;18701;45.588;5.288;2023-02-15T17:21:41;7.63;;;2.38;;
32200;SDS011;18701;45.588;5.288;2023-02-15T17:24:21;5.30;;;2.65;;
32200;SDS011;18701;45.588;5.288;2023-02-15T17:26:56;6.85;;;3.05;;
32200;SDS011;18701;45.588;5.288;2023-02-15T17:32:05;6.57;;;3.38;;
32200;SDS011;18701;45.588;5.288;2023-02-15T17:34:46;7.35;;;3.00;;
32200;SDS011;18701;45.588;5.288;2023-02-15T17:37:28;8.18;;;3.88;;
32200;SDS011;18701;45.588;5.288;2023-02-15T17:40:20;11.63;;;4.18;;
32200;SDS011;18701;45.588;5.288;2023-02-15T17:42:50;7.40;;;4.25;;
32200;SDS011;18701;45.588;5.288;2023-02-15T17:45:16;12.73;;;5.68;;
32200;SDS011;18701;45.588;5.288;2023-02-15T17:47:42;7.22;;;4.32;;
32200;SDS011;18701;45.588;5.288;2023-02-15T17:50:10;11.63;;;4.85;;
32200;SDS011;18701;45.588;5.288;2023-02-15T17:52:48;11.88;;;4.55;;